Chitose — JD2925 — position and weather

sailwx.info

Track history (hours):
 
Tides and Currents Weather Stations Pressure Air Temp Water Temp Dewpoint Dewpoint Depression Visibility Wind Speed Wind Dir Waves Ship Positions

Chitose

Last reported at 2016-Sep-27 19:33 UTC. Time now 2016-Sep-28 00:06 UTC.
Position N 35°26' E 139°41'.

Length 33 m; draft 3.8 m.

Type: Tug. MMSI: 431000953.

Date/timePositionNaut miles runAvg speedWind from/ knotsBaromVisibWave heightAir tempDewpointWater temp
2016-Sep-27 19:33N 35°26' E 139°41'2 0.5
2016-Sep-27 14:33N 35°27' E 139°39'0 0.0
2016-Sep-27 13:33N 35°27' E 139°39'0 0.0
2016-Sep-27 10:33N 35°27' E 139°39'1 0.1
2016-Sep-27 00:33N 35°27' E 139°39'0 0.0
2016-Sep-26 20:33N 35°27' E 139°39'0 0.0
2016-Sep-26 19:33N 35°27' E 139°39'0 0.0
2016-Sep-26 15:33N 35°27' E 139°39'0 0.0
2016-Sep-26 13:33N 35°27' E 139°39'0 0.0
2016-Sep-26 11:33N 35°27' E 139°39'0 0.0
2016-Sep-26 08:33N 35°27' E 139°39'1 0.1
2016-Sep-26 02:33N 35°27' E 139°39'0 0.0
2016-Sep-26 01:33N 35°27' E 139°39'0 0.0
2016-Sep-26 00:33N 35°27' E 139°39'1 0.2
2016-Sep-25 21:33N 35°27' E 139°39'0 0.0
2016-Sep-24 03:33N 35°27' E 139°39'0 0.0
2016-Sep-24 02:33N 35°27' E 139°39'0 0.0
2016-Sep-24 01:33N 35°27' E 139°39'0 0.0
2016-Sep-24 00:33N 35°27' E 139°39'0 0.0
2016-Sep-22 23:24N 35°27' E 139°39'3 0.9
2016-Sep-22 20:33N 35°27' E 139°42'3 0.3
2016-Sep-22 12:33N 35°27' E 139°39'4 0.5
2016-Sep-22 04:33N 35°28' E 139°43'0 0.2
2016-Sep-22 03:33N 35°28' E 139°43'4 1.3
2016-Sep-22 00:33N 35°27' E 139°39'0 0.0
2016-Sep-21 23:33N 35°27' E 139°39'0 0.0
2016-Sep-21 22:33N 35°27' E 139°39'5 0.3
2016-Sep-21 05:33N 35°29' E 139°45'3 1.5
2016-Sep-21 03:33N 35°27' E 139°42'0 0.0
2016-Sep-21 02:33N 35°27' E 139°42'3 0.1
2016-Sep-20 07:10N 35°27' E 139°39'0 0.0
2016-Sep-20 06:33N 35°27' E 139°39'0 0.0
2016-Sep-20 02:33N 35°27' E 139°39'0 0.0
2016-Sep-19 23:34N 35°27' E 139°39'0 0.0
2016-Sep-19 19:33N 35°27' E 139°39'0 0.0
2016-Sep-19 18:33N 35°27' E 139°39'0 0.0
2016-Sep-19 16:33N 35°27' E 139°39'0 0.0
2016-Sep-19 14:33N 35°27' E 139°39'0 0.0
2016-Sep-19 13:33N 35°27' E 139°39'0 0.0
2016-Sep-19 12:33N 35°27' E 139°39'0 0.0
2016-Sep-19 11:33N 35°27' E 139°39'0 0.0
2016-Sep-19 09:33N 35°27' E 139°39'0 0.0
2016-Sep-19 07:33N 35°27' E 139°39'0 0.0
2016-Sep-19 06:33N 35°27' E 139°39'0 0.0
2016-Sep-19 03:33N 35°27' E 139°39'0 0.0
2016-Sep-19 02:33N 35°27' E 139°39'0 0.0
2016-Sep-19 00:33N 35°27' E 139°39'0 0.0
2016-Sep-18 19:33N 35°27' E 139°39'0 0.0
2016-Sep-18 15:33N 35°27' E 139°39'0 0.0
2016-Sep-18 14:33N 35°27' E 139°39'0 0.0
2016-Sep-18 10:33N 35°27' E 139°39'0 0.0
2016-Sep-18 09:33N 35°27' E 139°39'0 0.0
2016-Sep-18 02:33N 35°27' E 139°39'  
Track history (hours):
 
Tides and Currents Weather Stations Pressure Air Temp Water Temp Dewpoint Dewpoint Depression Visibility Wind Speed Wind Dir Waves Ship Positions

Chitose

Last reported at 2016-Sep-27 19:33 UTC. Time now 2016-Sep-28 00:06 UTC.
Position N 35°26' E 139°41'.

Length 33 m; draft 3.8 m.

Type: Tug. MMSI: 431000953.

Date/timePositionNaut miles runAvg speedWind from/ knotsBaromVisibWave heightAir tempDewpointWater temp
2016-Sep-27 19:33N 35°26' E 139°41'2 0.5
2016-Sep-27 14:33N 35°27' E 139°39'0 0.0
2016-Sep-27 13:33N 35°27' E 139°39'0 0.0
2016-Sep-27 10:33N 35°27' E 139°39'1 0.1
2016-Sep-27 00:33N 35°27' E 139°39'0 0.0
2016-Sep-26 20:33N 35°27' E 139°39'0 0.0
2016-Sep-26 19:33N 35°27' E 139°39'0 0.0
2016-Sep-26 15:33N 35°27' E 139°39'0 0.0
2016-Sep-26 13:33N 35°27' E 139°39'0 0.0
2016-Sep-26 11:33N 35°27' E 139°39'0 0.0
2016-Sep-26 08:33N 35°27' E 139°39'1 0.1
2016-Sep-26 02:33N 35°27' E 139°39'0 0.0
2016-Sep-26 01:33N 35°27' E 139°39'0 0.0
2016-Sep-26 00:33N 35°27' E 139°39'1 0.2
2016-Sep-25 21:33N 35°27' E 139°39'0 0.0
2016-Sep-24 03:33N 35°27' E 139°39'0 0.0
2016-Sep-24 02:33N 35°27' E 139°39'0 0.0
2016-Sep-24 01:33N 35°27' E 139°39'0 0.0
2016-Sep-24 00:33N 35°27' E 139°39'0 0.0
2016-Sep-22 23:24N 35°27' E 139°39'3 0.9
2016-Sep-22 20:33N 35°27' E 139°42'3 0.3
2016-Sep-22 12:33N 35°27' E 139°39'4 0.5
2016-Sep-22 04:33N 35°28' E 139°43'0 0.2
2016-Sep-22 03:33N 35°28' E 139°43'4 1.3
2016-Sep-22 00:33N 35°27' E 139°39'0 0.0
2016-Sep-21 23:33N 35°27' E 139°39'0 0.0
2016-Sep-21 22:33N 35°27' E 139°39'5 0.3
2016-Sep-21 05:33N 35°29' E 139°45'3 1.5
2016-Sep-21 03:33N 35°27' E 139°42'0 0.0
2016-Sep-21 02:33N 35°27' E 139°42'3 0.1
2016-Sep-20 07:10N 35°27' E 139°39'0 0.0
2016-Sep-20 06:33N 35°27' E 139°39'0 0.0
2016-Sep-20 02:33N 35°27' E 139°39'0 0.0
2016-Sep-19 23:34N 35°27' E 139°39'0 0.0
2016-Sep-19 19:33N 35°27' E 139°39'0 0.0
2016-Sep-19 18:33N 35°27' E 139°39'0 0.0
2016-Sep-19 16:33N 35°27' E 139°39'0 0.0
2016-Sep-19 14:33N 35°27' E 139°39'0 0.0
2016-Sep-19 13:33N 35°27' E 139°39'0 0.0
2016-Sep-19 12:33N 35°27' E 139°39'0 0.0
2016-Sep-19 11:33N 35°27' E 139°39'0 0.0
2016-Sep-19 09:33N 35°27' E 139°39'0 0.0
2016-Sep-19 07:33N 35°27' E 139°39'0 0.0
2016-Sep-19 06:33N 35°27' E 139°39'0 0.0
2016-Sep-19 03:33N 35°27' E 139°39'0 0.0
2016-Sep-19 02:33N 35°27' E 139°39'0 0.0
2016-Sep-19 00:33N 35°27' E 139°39'0 0.0
2016-Sep-18 19:33N 35°27' E 139°39'0 0.0
2016-Sep-18 15:33N 35°27' E 139°39'0 0.0
2016-Sep-18 14:33N 35°27' E 139°39'0 0.0
2016-Sep-18 10:33N 35°27' E 139°39'0 0.0
2016-Sep-18 09:33N 35°27' E 139°39'0 0.0
2016-Sep-18 02:33N 35°27' E 139°39'  

Dump ship's entire track history